Denver City, Texas
Current Conditions -  °F | °C
As of 3:35 AM on Monday 22 Dec 2014 (Local Time) from KGNC Reporting Station
Clear Clear  
Wind Chill: 52°   Ceiling: Unl
Heat Index: 52°   Visibility: 10mi
Dew Point: 29°   Wind: 10mph
Humidity: 42%   Direction: 260°W
Pressure: 29.72"   Gusts: NA
Location:  32.96°N, 102.82°W
Report Text: KGNC 220935Z AUTO 26009KT 10SM CLR 11/M01 A2972 RMK AO2 T01101015
Loading
Personal Weather Stations






























Interactive Weather Map New forecast layout! Learn more

10-Day Weather Forecast

Advertisements
Track Severe Weather on mobile